Terminal Aerodrome Forecast
Issued by NWS

Home | Current Version | Previous Version | Text Only | Print | Product List | Glossary On
Versions: 1 2 3 4 5 6 7 8 9 10 11 12 13 14
000
FTUS46 KOTX 191139
TAFPUW
TAF
KPUW 191139Z 1912/2012 11011KT P6SM SCT150 BKN200
     FM191900 15013KT P6SM SCT150 BKN200
     FM200600 18011KT P6SM -RA BKN060 OVC100
     FM200900 20013G19KT 6SM -RA OVC030=

USA.gov is the U.S. government's official web portal to all federal, state and local government web resources and services.